Terminal Aerodrome Forecast
Issued by NWS

Home | Current Version | Previous Version | Text Only | Print | Product List | Glossary On
Versions: 1 2 3 4 5 6 7 8 9 10 11 12 13 14 15 16 17 18 19 20 21
000
FTUS43 KGRR 012300
TAFBTL
TAF
KBTL 012340Z 0200/0224 06017G27KT 1/4SM +SN BLSN VV008
     FM020500 02015G25KT 1/2SM SN BLSN OVC008
     FM020900 01014G24KT 1SM -SN BLSN OVC015
     FM021100 36012G20KT 4SM -SN BLSN OVC020
     FM021400 33010G18KT P6SM BKN030=

USA.gov is the U.S. government's official web portal to all federal, state and local government web resources and services.